createdAt,value
2023-01-28T00:01:31.951Z,35.80
2023-01-28T00:04:00.305Z,31.30
2023-01-28T00:06:28.111Z,33.80
2023-01-28T00:08:56.851Z,33.50
2023-01-28T00:11:24.645Z,32.80
2023-01-28T00:13:52.789Z,32.70
2023-01-28T00:16:22.031Z,31.60
2023-01-28T00:18:50.053Z,32.70
2023-01-28T00:21:17.957Z,29.30
2023-01-28T00:23:50.430Z,31.10
2023-01-28T00:26:18.600Z,31.50
2023-01-28T00:28:47.790Z,32.30
2023-01-28T00:31:17.521Z,29.80
2023-01-28T00:33:45.992Z,29.80
2023-01-28T00:36:14.985Z,32.80
2023-01-28T00:38:43.654Z,35.00
2023-01-28T00:41:16.151Z,32.10
2023-01-28T00:43:44.716Z,32.30
2023-01-28T00:46:13.753Z,32.30
2023-01-28T00:48:42.540Z,31.20
2023-01-28T00:51:11.074Z,33.20
2023-01-28T00:53:39.525Z,33.00
2023-01-28T00:56:08.755Z,32.50
2023-01-28T00:58:37.130Z,32.00
2023-01-28T01:01:09.110Z,29.10
2023-01-28T01:03:37.938Z,31.40
2023-01-28T01:06:06.915Z,32.70
2023-01-28T01:08:35.355Z,31.10
2023-01-28T01:11:04.344Z,35.90
2023-01-28T01:13:34.421Z,31.50
2023-01-28T01:16:04.553Z,31.70
2023-01-28T01:18:33.751Z,34.10
2023-01-28T01:21:02.573Z,27.80
2023-01-28T01:23:31.273Z,33.60
2023-01-28T01:25:59.283Z,30.50
2023-01-28T01:28:27.472Z,28.50
2023-01-28T01:31:00.433Z,33.40
2023-01-28T01:33:29.565Z,31.80
2023-01-28T01:35:57.780Z,31.80
2023-01-28T01:38:27.920Z,30.40
2023-01-28T01:40:57.871Z,34.30
2023-01-28T01:43:26.461Z,29.20
2023-01-28T01:45:56.399Z,29.00
2023-01-28T01:48:27.425Z,33.70
2023-01-28T01:50:57.440Z,33.70
2023-01-28T01:53:26.589Z,33.50
2023-01-28T01:55:57.325Z,30.00
2023-01-28T01:58:27.567Z,35.10
2023-01-28T02:00:55.458Z,29.00
2023-01-28T02:03:26.835Z,27.50
2023-01-28T02:05:55.256Z,30.10
2023-01-28T02:08:23.260Z,30.90
2023-01-28T02:10:54.239Z,28.70
2023-01-28T02:13:24.121Z,34.30
2023-01-28T02:15:52.176Z,32.10
2023-01-28T02:18:20.206Z,30.20
2023-01-28T02:21:05.038Z,30.30
2023-01-28T02:23:39.357Z,31.00
2023-01-28T02:26:26.624Z,30.90
2023-01-28T02:28:58.256Z,30.70
2023-01-28T02:31:30.048Z,32.90
2023-01-28T02:33:59.804Z,30.50
2023-01-28T02:36:30.702Z,31.00
2023-01-28T02:39:00.871Z,28.60
2023-01-28T02:41:30.089Z,36.90
2023-01-28T02:43:57.854Z,31.80
2023-01-28T02:46:53.162Z,28.30
2023-01-28T02:49:23.401Z,28.80
2023-01-28T02:52:15.098Z,31.10
2023-01-28T02:54:46.600Z,32.50
2023-01-28T02:57:19.029Z,33.70
2023-01-28T03:02:28.130Z,29.10
2023-01-28T03:05:00.788Z,27.90
2023-01-28T03:07:31.314Z,31.00
2023-01-28T03:10:03.958Z,29.90
2023-01-28T03:12:51.125Z,30.80
2023-01-28T03:15:39.209Z,27.60
2023-01-28T03:18:27.155Z,28.20
2023-01-28T03:21:15.539Z,31.70
2023-01-28T03:24:07.283Z,35.30
2023-01-28T03:26:57.322Z,30.50
2023-01-28T03:29:44.906Z,29.70
2023-01-28T03:32:33.115Z,31.60
2023-01-28T03:35:19.842Z,29.60
2023-01-28T03:37:47.921Z,35.30
2023-01-28T03:40:22.068Z,29.80
2023-01-28T03:42:51.826Z,32.20
2023-01-28T03:45:40.160Z,30.20
2023-01-28T03:48:08.123Z,33.10
2023-01-28T03:50:36.221Z,31.50
2023-01-28T03:53:15.901Z,29.30
2023-01-28T03:55:52.940Z,30.40
2023-01-28T03:58:21.218Z,32.30
2023-01-28T04:00:49.002Z,32.60
2023-01-28T04:03:18.657Z,26.90
2023-01-28T04:05:59.305Z,35.20
2023-01-28T04:08:30.090Z,31.80
2023-01-28T04:11:33.954Z,29.90
2023-01-28T04:14:04.833Z,30.90
2023-01-28T04:16:46.204Z,33.60
2023-01-28T04:19:14.895Z,29.70
2023-01-28T04:21:43.779Z,29.60
2023-01-28T04:24:11.951Z,30.40
2023-01-28T04:26:40.646Z,32.60
2023-01-28T04:29:08.506Z,32.70
2023-01-28T04:31:38.048Z,30.50
2023-01-28T04:34:24.200Z,29.40
2023-01-28T04:36:59.442Z,32.00
2023-01-28T04:39:59.971Z,32.20
2023-01-28T04:42:54.066Z,31.60
2023-01-28T04:45:42.230Z,29.40
2023-01-28T04:48:31.263Z,29.70
2023-01-28T04:51:20.948Z,34.70
2023-01-28T04:54:18.914Z,33.20
2023-01-28T04:56:47.283Z,36.20
2023-01-28T04:59:15.153Z,31.40
2023-01-28T05:01:45.511Z,27.70
2023-01-28T05:04:13.652Z,28.30
2023-01-28T05:06:41.428Z,29.50
2023-01-28T05:09:24.033Z,28.80
2023-01-28T05:11:54.022Z,25.50
2023-01-28T05:14:21.783Z,27.00
2023-01-28T05:19:33.028Z,27.40
2023-01-28T05:22:01.857Z,30.10
2023-01-28T05:24:37.815Z,26.00
2023-01-28T05:27:06.969Z,31.30
2023-01-28T05:29:34.827Z,28.10
2023-01-28T05:32:03.918Z,28.00
2023-01-28T05:34:32.490Z,26.90
2023-01-28T05:37:06.117Z,30.00
2023-01-28T05:39:37.638Z,30.30
2023-01-28T05:42:06.425Z,30.30
2023-01-28T05:44:37.556Z,32.50
2023-01-28T05:47:16.014Z,35.80
2023-01-28T05:49:53.454Z,27.00
2023-01-28T05:52:40.997Z,27.50
2023-01-28T05:55:18.110Z,24.30
2023-01-28T05:57:48.749Z,25.80
2023-01-28T06:00:19.878Z,28.70
2023-01-28T06:02:48.263Z,26.80
2023-01-28T06:05:17.480Z,30.70
2023-01-28T06:07:46.512Z,26.70
2023-01-28T06:10:17.496Z,28.20
2023-01-28T06:12:46.136Z,26.20
2023-01-28T06:15:33.074Z,28.00
2023-01-28T06:18:14.127Z,25.50
2023-01-28T06:20:42.647Z,23.00
2023-01-28T06:23:11.096Z,23.40
2023-01-28T06:25:39.779Z,25.90
2023-01-28T06:28:12.144Z,24.70
2023-01-28T06:30:40.377Z,26.70
2023-01-28T06:33:08.594Z,26.70
2023-01-28T06:35:37.033Z,26.80
2023-01-28T06:38:05.216Z,27.40
2023-01-28T06:40:33.728Z,23.80
2023-01-28T06:43:02.124Z,25.80
2023-01-28T06:45:30.221Z,23.60
2023-01-28T06:47:58.673Z,24.00
2023-01-28T06:50:26.958Z,21.90
2023-01-28T06:52:54.870Z,25.30
2023-01-28T06:55:22.785Z,22.70
2023-01-28T06:57:51.126Z,24.40
2023-01-28T07:00:20.123Z,22.80
2023-01-28T07:02:47.936Z,25.70
2023-01-28T07:05:16.220Z,24.30
2023-01-28T07:07:45.088Z,23.30
2023-01-28T07:10:13.242Z,20.20
2023-01-28T07:12:41.753Z,23.60
2023-01-28T07:15:11.257Z,27.00
2023-01-28T07:17:40.312Z,24.50
2023-01-28T07:20:12.634Z,20.60
2023-01-28T07:22:41.581Z,25.80
2023-01-28T07:25:11.394Z,20.40
2023-01-28T07:27:39.464Z,21.30
2023-01-28T07:30:08.775Z,27.40
2023-01-28T07:32:36.988Z,24.90
2023-01-28T07:35:05.927Z,24.90
2023-01-28T07:37:33.697Z,24.40
2023-01-28T07:40:02.012Z,22.00
2023-01-28T07:42:29.905Z,23.70
2023-01-28T07:44:58.647Z,25.60
2023-01-28T07:47:26.943Z,29.50
2023-01-28T07:49:54.871Z,22.40
2023-01-28T07:52:22.843Z,24.70
2023-01-28T07:54:51.639Z,23.20
2023-01-28T07:57:23.085Z,24.60
2023-01-28T07:59:51.360Z,20.90
2023-01-28T08:02:19.581Z,20.50
2023-01-28T08:04:47.835Z,20.10
2023-01-28T08:07:15.870Z,20.90
2023-01-28T08:09:44.007Z,20.30
2023-01-28T08:12:13.310Z,26.70
2023-01-28T08:14:41.585Z,21.30
2023-01-28T08:17:09.538Z,20.10
2023-01-28T08:19:37.417Z,19.00
2023-01-28T08:22:05.250Z,21.10
2023-01-28T08:24:33.381Z,18.80
2023-01-28T08:27:01.166Z,17.80
2023-01-28T08:29:29.017Z,21.40
2023-01-28T08:31:57.210Z,16.40
2023-01-28T08:34:25.056Z,17.40
2023-01-28T08:36:52.959Z,16.10
2023-01-28T08:39:21.038Z,14.80
2023-01-28T08:41:49.221Z,17.90
2023-01-28T08:44:17.131Z,17.80
2023-01-28T08:53:57.536Z,23.70
2023-01-28T08:56:25.775Z,22.20
2023-01-28T08:58:53.891Z,18.80
2023-01-28T09:01:22.206Z,20.00
2023-01-28T09:03:50.122Z,17.90
2023-01-28T09:06:17.946Z,16.90
2023-01-28T09:08:45.859Z,20.50
2023-01-28T09:11:14.000Z,21.10
2023-01-28T09:13:41.768Z,18.20
2023-01-28T09:16:10.676Z,19.50
2023-01-28T09:18:38.612Z,18.70
2023-01-28T09:21:08.220Z,17.00
2023-01-28T09:23:36.968Z,19.90
2023-01-28T09:26:06.339Z,15.00
2023-01-28T09:28:34.203Z,16.00
2023-01-28T09:31:03.265Z,18.60
2023-01-28T09:33:31.705Z,21.90
2023-01-28T09:36:00.763Z,19.70
2023-01-28T09:38:30.653Z,19.50
2023-01-28T09:40:58.961Z,18.70
2023-01-28T09:43:40.721Z,14.60
2023-01-28T09:46:11.394Z,18.30
2023-01-28T09:48:40.843Z,15.90
2023-01-28T09:51:10.486Z,18.20
2023-01-28T09:53:43.400Z,20.00
2023-01-28T09:56:14.035Z,16.40
2023-01-28T09:58:42.804Z,17.10
2023-01-28T10:01:20.598Z,17.00
2023-01-28T10:03:53.209Z,15.70
2023-01-28T10:06:25.918Z,15.70
2023-01-28T10:09:12.978Z,17.10
2023-01-28T10:11:49.651Z,18.30
2023-01-28T10:14:21.687Z,15.30
2023-01-28T10:16:53.777Z,19.40
2023-01-28T10:19:27.573Z,16.70
2023-01-28T10:22:01.273Z,18.90
2023-01-28T10:24:33.501Z,17.50
2023-01-28T10:27:05.360Z,15.10
2023-01-28T10:29:36.454Z,17.90
2023-01-28T10:32:15.633Z,16.10
2023-01-28T10:34:46.313Z,16.70
2023-01-28T10:37:17.867Z,17.70
2023-01-28T10:39:48.908Z,17.70
2023-01-28T10:42:30.391Z,16.70
2023-01-28T10:45:03.488Z,16.60
2023-01-28T10:47:39.534Z,21.10
2023-01-28T10:50:16.500Z,18.70
2023-01-28T10:52:56.047Z,16.10
2023-01-28T10:55:28.242Z,16.70
2023-01-28T10:57:59.710Z,16.70
2023-01-28T11:00:32.709Z,17.40
2023-01-28T11:03:04.209Z,19.80
2023-01-28T11:05:35.037Z,17.00
2023-01-28T11:08:06.760Z,17.30
2023-01-28T11:10:38.266Z,19.30
2023-01-28T11:13:16.857Z,17.00
2023-01-28T11:15:51.119Z,16.50
2023-01-28T11:18:25.378Z,20.10
2023-01-28T11:20:57.477Z,18.90
2023-01-28T11:23:29.272Z,17.90
2023-01-28T11:26:05.381Z,17.70
2023-01-28T11:28:36.825Z,20.20
2023-01-28T11:31:08.067Z,17.80
2023-01-28T11:33:40.348Z,16.80
2023-01-28T11:36:15.585Z,19.30
2023-01-28T11:38:55.639Z,17.90
2023-01-28T11:41:29.257Z,21.20
2023-01-28T11:44:01.567Z,18.00
2023-01-28T11:46:40.730Z,18.30
2023-01-28T11:49:14.579Z,18.90
2023-01-28T11:51:49.416Z,19.80
2023-01-28T11:54:29.685Z,17.50
2023-01-28T11:57:05.915Z,20.20
2023-01-28T11:59:47.572Z,20.00
2023-01-28T12:04:59.145Z,18.90
2023-01-28T12:07:35.237Z,23.40
2023-01-28T12:10:20.485Z,21.10
2023-01-28T12:13:15.168Z,26.20
2023-01-28T12:16:26.343Z,25.90
2023-01-28T12:19:20.586Z,22.80
2023-01-28T12:22:26.876Z,24.60
2023-01-28T12:25:06.303Z,21.30
2023-01-28T12:27:43.210Z,22.30
2023-01-28T12:30:20.970Z,23.20
2023-01-28T12:33:05.919Z,23.40
2023-01-28T12:35:52.734Z,23.10
2023-01-28T12:38:29.233Z,23.70
2023-01-28T12:41:08.785Z,25.30
2023-01-28T12:43:44.953Z,21.00
2023-01-28T12:46:22.295Z,23.00
2023-01-28T12:49:02.697Z,22.90
2023-01-28T12:51:50.101Z,25.90
2023-01-28T12:54:33.436Z,21.20
2023-01-28T12:57:22.019Z,21.20
2023-01-28T13:00:18.228Z,20.80
2023-01-28T13:03:19.726Z,22.30
2023-01-28T13:05:57.132Z,25.40
2023-01-28T13:08:32.779Z,21.20
2023-01-28T13:11:05.538Z,21.10
2023-01-28T13:13:36.973Z,20.80
2023-01-28T13:16:09.444Z,18.50
2023-01-28T13:18:46.725Z,19.50
2023-01-28T13:21:48.605Z,20.40
2023-01-28T13:24:29.254Z,21.30
2023-01-28T13:27:00.338Z,20.80
2023-01-28T13:29:32.428Z,19.70
2023-01-28T13:32:08.908Z,17.60
2023-01-28T13:34:40.950Z,21.40
2023-01-28T13:37:20.390Z,20.70
2023-01-28T13:39:53.617Z,19.30
2023-01-28T13:42:25.730Z,18.90
2023-01-28T13:44:57.701Z,21.50
2023-01-28T13:47:32.368Z,21.30
2023-01-28T13:50:04.783Z,18.80
2023-01-28T13:52:38.053Z,18.70
2023-01-28T13:55:30.377Z,18.10
2023-01-28T13:58:22.047Z,18.10
2023-01-28T14:01:12.998Z,20.00
2023-01-28T14:03:53.370Z,20.10
2023-01-28T14:06:31.412Z,22.70
2023-01-28T14:09:16.703Z,20.30
2023-01-28T14:11:58.291Z,18.90
2023-01-28T14:14:41.563Z,19.50
2023-01-28T14:17:15.727Z,18.90
2023-01-28T14:19:47.178Z,18.70
2023-01-28T14:22:19.386Z,19.40
2023-01-28T14:24:50.398Z,17.10
2023-01-28T14:27:25.106Z,19.10
2023-01-28T14:30:04.746Z,21.60
2023-01-28T14:32:35.875Z,19.10
2023-01-28T14:35:09.999Z,25.80
2023-01-28T14:37:41.530Z,22.80
2023-01-28T14:40:16.580Z,21.30
2023-01-28T14:42:49.478Z,23.20
2023-01-28T14:45:26.340Z,21.70
2023-01-28T14:48:02.765Z,24.80
2023-01-28T14:50:38.297Z,26.00
2023-01-28T14:53:21.771Z,37.80
2023-01-28T14:55:57.614Z,34.00
2023-01-28T14:58:32.572Z,34.80
2023-01-28T15:01:03.513Z,36.60
2023-01-28T15:03:46.587Z,36.90
2023-01-28T15:06:18.485Z,39.60
2023-01-28T15:08:51.477Z,41.00
2023-01-28T15:11:24.677Z,41.80
2023-01-28T15:14:01.278Z,41.60
2023-01-28T15:16:35.872Z,37.60
2023-01-28T15:19:10.019Z,41.40
2023-01-28T15:21:45.265Z,43.20
2023-01-28T15:24:18.670Z,41.10
2023-01-28T15:29:32.394Z,43.80
2023-01-28T15:32:04.780Z,42.60
2023-01-28T15:34:38.855Z,45.50
2023-01-28T15:37:13.662Z,47.90
2023-01-28T15:39:45.161Z,44.10
2023-01-28T15:42:23.238Z,49.50
2023-01-28T15:44:54.686Z,46.70
2023-01-28T15:47:27.269Z,45.80
2023-01-28T15:50:00.019Z,46.80
2023-01-28T15:52:35.632Z,46.20
2023-01-28T15:55:07.791Z,43.80
2023-01-28T15:57:43.579Z,55.10
2023-01-28T16:00:20.847Z,47.70
2023-01-28T16:02:56.761Z,43.50
2023-01-28T16:05:29.836Z,41.80
2023-01-28T16:08:03.452Z,40.80
2023-01-28T16:10:34.563Z,45.20
2023-01-28T16:13:05.952Z,42.20
2023-01-28T16:15:38.915Z,46.20
2023-01-28T16:18:21.682Z,46.80
2023-01-28T16:20:54.076Z,47.20
2023-01-28T16:23:26.839Z,38.80
2023-01-28T16:26:06.521Z,44.00
2023-01-28T16:28:38.075Z,41.40
2023-01-28T16:31:13.201Z,47.10
2023-01-28T16:33:52.396Z,45.50
2023-01-28T16:36:24.199Z,43.10
2023-01-28T16:38:54.734Z,44.70
2023-01-28T16:41:28.602Z,49.50
2023-01-28T16:44:01.318Z,49.00
2023-01-28T16:46:33.703Z,46.40
2023-01-28T16:49:05.092Z,44.20
2023-01-28T16:51:37.632Z,45.60
2023-01-28T16:54:08.340Z,48.60
2023-01-28T16:56:45.550Z,48.90
2023-01-28T16:59:17.720Z,48.50
2023-01-28T17:01:53.998Z,55.50
2023-01-28T17:04:25.162Z,46.10
2023-01-28T17:07:00.352Z,47.20
2023-01-28T17:09:40.800Z,42.70
2023-01-28T17:12:16.316Z,54.30
2023-01-28T17:14:51.200Z,45.50
2023-01-28T17:17:22.729Z,49.50
2023-01-28T17:19:53.179Z,46.10
2023-01-28T17:22:24.503Z,46.00
2023-01-28T17:24:55.063Z,48.70
2023-01-28T17:27:30.363Z,52.80
2023-01-28T17:30:01.114Z,51.00
2023-01-28T17:32:32.153Z,49.50
2023-01-28T17:35:08.065Z,48.50
2023-01-28T17:37:43.806Z,50.90
2023-01-28T17:40:15.573Z,48.40
2023-01-28T17:42:46.550Z,55.70
2023-01-28T17:45:17.935Z,53.10
2023-01-28T17:47:49.491Z,49.90
2023-01-28T17:50:20.689Z,51.80
2023-01-28T17:52:59.315Z,57.30
2023-01-28T17:55:34.709Z,57.40
2023-01-28T17:58:08.463Z,58.00
2023-01-28T18:00:39.594Z,50.50
2023-01-28T18:03:13.565Z,54.30
2023-01-28T18:05:44.655Z,52.80
2023-01-28T18:08:15.436Z,52.60
2023-01-28T18:10:55.333Z,59.30
2023-01-28T18:13:26.583Z,58.40
2023-01-28T18:15:57.337Z,57.60
2023-01-28T18:18:28.862Z,55.20
2023-01-28T18:21:00.224Z,56.80
2023-01-28T18:23:31.625Z,55.40
2023-01-28T18:26:03.649Z,55.20
2023-01-28T18:28:35.952Z,56.50
2023-01-28T18:31:07.833Z,58.20
2023-01-28T18:33:44.175Z,58.00
2023-01-28T18:36:15.157Z,55.40
2023-01-28T18:38:46.630Z,61.70
2023-01-28T18:41:17.473Z,58.20
2023-01-28T18:43:48.588Z,57.00
2023-01-28T18:46:19.934Z,59.90
2023-01-28T18:48:55.078Z,56.10
2023-01-28T18:51:30.759Z,56.60
2023-01-28T18:54:03.319Z,62.20
2023-01-28T18:56:38.195Z,54.90
2023-01-28T18:59:11.460Z,54.20
2023-01-28T19:01:43.124Z,53.00
2023-01-28T19:04:19.340Z,56.10
2023-01-28T19:06:54.511Z,53.80
2023-01-28T19:09:26.121Z,61.10
2023-01-28T19:11:56.905Z,58.30
2023-01-28T19:14:27.908Z,57.80
2023-01-28T19:16:59.142Z,54.50
2023-01-28T19:19:30.498Z,60.80
2023-01-28T19:22:10.576Z,56.80
2023-01-28T19:24:46.083Z,55.60
2023-01-28T19:27:17.320Z,57.10
2023-01-28T19:29:48.898Z,58.10
2023-01-28T19:32:24.221Z,59.10
2023-01-28T19:34:55.394Z,57.50
2023-01-28T19:37:25.842Z,58.40
2023-01-28T19:39:57.119Z,58.90
2023-01-28T19:42:27.572Z,57.30
2023-01-28T19:44:58.783Z,61.40
2023-01-28T19:47:29.753Z,53.90
2023-01-28T19:50:01.118Z,65.10
2023-01-28T19:52:31.931Z,63.30
2023-01-28T19:55:07.692Z,56.50
2023-01-28T19:57:38.632Z,55.70
2023-01-28T20:00:12.756Z,57.20
2023-01-28T20:02:43.779Z,55.50
2023-01-28T20:05:15.545Z,57.60
2023-01-28T20:07:46.643Z,59.30
2023-01-28T20:10:22.050Z,54.00
2023-01-28T20:12:53.358Z,52.00
2023-01-28T20:15:24.507Z,51.40
2023-01-28T20:17:55.764Z,54.50
2023-01-28T20:20:26.497Z,49.50
2023-01-28T20:23:06.036Z,52.70
2023-01-28T20:25:36.857Z,53.50
2023-01-28T20:28:08.519Z,50.10
2023-01-28T20:30:39.309Z,53.70
2023-01-28T20:33:10.808Z,51.50
2023-01-28T20:35:41.438Z,49.50
2023-01-28T20:38:12.749Z,46.80
2023-01-28T20:40:44.288Z,45.30
2023-01-28T20:43:15.264Z,50.40
2023-01-28T20:45:46.003Z,45.60
2023-01-28T20:48:22.067Z,42.20
2023-01-28T20:50:57.877Z,38.10
2023-01-28T20:53:42.968Z,41.60
2023-01-28T20:56:16.473Z,37.80
2023-01-28T20:58:49.570Z,42.00
2023-01-28T21:01:26.218Z,43.90
2023-01-28T21:03:57.961Z,41.50
2023-01-28T21:06:29.018Z,37.70
2023-01-28T21:09:00.111Z,38.60
2023-01-28T21:11:35.231Z,41.00
2023-01-28T21:14:06.561Z,36.50
2023-01-28T21:16:42.488Z,34.10
2023-01-28T21:19:13.562Z,34.60
2023-01-28T21:21:45.723Z,34.90
2023-01-28T21:24:20.793Z,31.10
2023-01-28T21:26:52.619Z,30.30
2023-01-28T21:29:23.144Z,30.30
2023-01-28T21:32:03.098Z,29.20
2023-01-28T21:34:34.243Z,30.40
2023-01-28T21:37:04.869Z,29.10
2023-01-28T21:39:36.427Z,31.60
2023-01-28T21:42:07.305Z,29.00
2023-01-28T21:44:38.574Z,29.60
2023-01-28T21:47:09.336Z,28.80
2023-01-28T21:49:40.404Z,27.80
2023-01-28T21:52:11.163Z,26.20
2023-01-28T21:54:42.351Z,28.50
2023-01-28T21:57:13.442Z,26.40
2023-01-28T21:59:46.711Z,32.50
2023-01-28T22:02:17.834Z,33.30
2023-01-28T22:04:50.062Z,28.00
2023-01-28T22:07:21.833Z,24.40
2023-01-28T22:09:53.151Z,24.60
2023-01-28T22:12:24.291Z,32.60
2023-01-28T22:14:55.738Z,31.50
2023-01-28T22:17:26.742Z,27.60
2023-01-28T22:19:57.673Z,26.70
2023-01-28T22:22:28.198Z,29.10
2023-01-28T22:25:00.129Z,26.70
2023-01-28T22:27:31.211Z,29.80
2023-01-28T22:30:02.393Z,26.30
2023-01-28T22:32:33.186Z,25.20
2023-01-28T22:35:05.196Z,28.80
2023-01-28T22:37:35.979Z,26.60
2023-01-28T22:40:07.848Z,28.70
2023-01-28T22:42:38.572Z,33.70
2023-01-28T22:45:11.208Z,30.70
2023-01-28T22:47:41.888Z,29.30
2023-01-28T22:50:14.276Z,34.50
2023-01-28T22:52:45.338Z,28.00
2023-01-28T22:55:16.950Z,30.40
2023-01-28T22:57:47.852Z,32.00
2023-01-28T23:00:21.039Z,32.10
2023-01-28T23:05:21.925Z,26.90
2023-01-28T23:07:52.868Z,28.40
2023-01-28T23:10:24.527Z,29.90
2023-01-28T23:12:55.127Z,29.50
2023-01-28T23:15:43.921Z,25.60
2023-01-28T23:18:34.920Z,29.60
2023-01-28T23:21:24.896Z,26.70
2023-01-28T23:24:13.394Z,25.00
2023-01-28T23:26:44.490Z,23.40
2023-01-28T23:29:15.166Z,29.00
2023-01-28T23:31:47.942Z,26.30
2023-01-28T23:34:18.925Z,26.50
2023-01-28T23:36:50.725Z,24.70
2023-01-28T23:39:21.750Z,23.40
2023-01-28T23:41:53.023Z,21.10
2023-01-28T23:44:25.887Z,24.40
2023-01-28T23:46:57.068Z,23.80
2023-01-28T23:49:27.843Z,23.30
2023-01-28T23:51:58.995Z,21.30
2023-01-28T23:54:29.823Z,18.00
2023-01-28T23:57:01.224Z,19.30
2023-01-28T23:59:33.402Z,18.50
